sensor_id;sensor_type;location;lat;lon;timestamp;P1;durP1;ratioP1;P2;durP2;ratioP2
63959;SDS011;50136;51.374;0.096;2023-03-01T00:07:31;13.35;;;7.30;;
63959;SDS011;50136;51.374;0.096;2023-03-01T00:17:34;10.60;;;8.30;;
63959;SDS011;50136;51.374;0.096;2023-03-01T00:27:38;13.90;;;8.70;;
63959;SDS011;50136;51.374;0.096;2023-03-01T00:37:41;13.65;;;8.90;;
63959;SDS011;50136;51.374;0.096;2023-03-01T00:47:43;13.35;;;8.65;;
63959;SDS011;50136;51.374;0.096;2023-03-01T00:57:49;14.88;;;10.05;;
63959;SDS011;50136;51.374;0.096;2023-03-01T01:07:53;17.77;;;9.38;;
63959;SDS011;50136;51.374;0.096;2023-03-01T01:18:00;14.90;;;9.45;;
63959;SDS011;50136;51.374;0.096;2023-03-01T01:28:02;20.45;;;11.48;;
63959;SDS011;50136;51.374;0.096;2023-03-01T01:38:06;21.08;;;11.05;;
63959;SDS011;50136;51.374;0.096;2023-03-01T01:48:10;24.60;;;14.85;;
63959;SDS011;50136;51.374;0.096;2023-03-01T01:58:18;21.80;;;13.13;;
63959;SDS011;50136;51.374;0.096;2023-03-01T02:08:23;19.77;;;11.80;;
63959;SDS011;50136;51.374;0.096;2023-03-01T02:18:29;25.25;;;12.32;;
63959;SDS011;50136;51.374;0.096;2023-03-01T02:28:33;21.30;;;13.20;;
63959;SDS011;50136;51.374;0.096;2023-03-01T02:38:36;27.50;;;13.45;;
63959;SDS011;50136;51.374;0.096;2023-03-01T02:48:44;28.35;;;13.20;;
63959;SDS011;50136;51.374;0.096;2023-03-01T02:58:47;22.75;;;14.13;;
63959;SDS011;50136;51.374;0.096;2023-03-01T03:08:51;21.38;;;13.70;;
63959;SDS011;50136;51.374;0.096;2023-03-01T03:18:53;20.40;;;11.75;;
63959;SDS011;50136;51.374;0.096;2023-03-01T03:28:57;21.73;;;10.38;;
63959;SDS011;50136;51.374;0.096;2023-03-01T03:38:59;10.10;;;5.07;;
63959;SDS011;50136;51.374;0.096;2023-03-01T03:49:02;7.95;;;3.78;;
63959;SDS011;50136;51.374;0.096;2023-03-01T03:59:07;8.93;;;3.88;;
63959;SDS011;50136;51.374;0.096;2023-03-01T04:09:11;7.03;;;3.25;;
63959;SDS011;50136;51.374;0.096;2023-03-01T04:19:14;8.32;;;3.30;;
63959;SDS011;50136;51.374;0.096;2023-03-01T04:29:17;4.25;;;2.53;;
63959;SDS011;50136;51.374;0.096;2023-03-01T04:39:19;5.95;;;2.33;;
63959;SDS011;50136;51.374;0.096;2023-03-01T04:49:23;2.80;;;2.05;;
63959;SDS011;50136;51.374;0.096;2023-03-01T04:59:27;4.55;;;2.60;;
63959;SDS011;50136;51.374;0.096;2023-03-01T05:09:31;5.60;;;2.17;;
63959;SDS011;50136;51.374;0.096;2023-03-01T05:19:36;2.80;;;2.15;;
63959;SDS011;50136;51.374;0.096;2023-03-01T05:29:39;2.47;;;1.80;;
63959;SDS011;50136;51.374;0.096;2023-03-01T05:39:41;3.88;;;1.92;;
63959;SDS011;50136;51.374;0.096;2023-03-01T05:49:44;2.58;;;1.70;;
63959;SDS011;50136;51.374;0.096;2023-03-01T05:59:55;4.15;;;1.85;;
63959;SDS011;50136;51.374;0.096;2023-03-01T06:09:58;3.08;;;1.98;;
63959;SDS011;50136;51.374;0.096;2023-03-01T06:20:02;3.83;;;2.15;;
63959;SDS011;50136;51.374;0.096;2023-03-01T06:30:07;3.55;;;1.95;;
63959;SDS011;50136;51.374;0.096;2023-03-01T06:40:10;4.47;;;2.08;;
63959;SDS011;50136;51.374;0.096;2023-03-01T06:50:14;6.78;;;2.50;;
63959;SDS011;50136;51.374;0.096;2023-03-01T07:00:17;3.92;;;2.78;;
63959;SDS011;50136;51.374;0.096;2023-03-01T07:10:21;4.72;;;3.03;;
63959;SDS011;50136;51.374;0.096;2023-03-01T07:20:23;5.00;;;2.90;;
63959;SDS011;50136;51.374;0.096;2023-03-01T07:30:27;11.73;;;3.13;;
63959;SDS011;50136;51.374;0.096;2023-03-01T07:40:29;4.03;;;2.80;;
63959;SDS011;50136;51.374;0.096;2023-03-01T07:50:33;5.05;;;3.00;;
63959;SDS011;50136;51.374;0.096;2023-03-01T08:00:34;3.70;;;2.42;;
63959;SDS011;50136;51.374;0.096;2023-03-01T08:10:40;9.85;;;4.20;;
63959;SDS011;50136;51.374;0.096;2023-03-01T08:20:42;10.73;;;6.25;;
63959;SDS011;50136;51.374;0.096;2023-03-01T08:30:45;12.63;;;2.75;;
63959;SDS011;50136;51.374;0.096;2023-03-01T08:40:50;7.72;;;2.78;;
63959;SDS011;50136;51.374;0.096;2023-03-01T08:50:53;6.15;;;3.25;;
63959;SDS011;50136;51.374;0.096;2023-03-01T09:00:55;7.00;;;2.78;;
63959;SDS011;50136;51.374;0.096;2023-03-01T09:10:59;3.58;;;1.48;;
63959;SDS011;50136;51.374;0.096;2023-03-01T09:21:03;6.75;;;1.50;;
63959;SDS011;50136;51.374;0.096;2023-03-01T09:31:07;6.05;;;1.90;;
63959;SDS011;50136;51.374;0.096;2023-03-01T09:41:11;5.63;;;2.03;;
63959;SDS011;50136;51.374;0.096;2023-03-01T09:51:29;4.43;;;1.83;;
63959;SDS011;50136;51.374;0.096;2023-03-01T10:01:34;3.55;;;1.73;;
63959;SDS011;50136;51.374;0.096;2023-03-01T10:11:42;4.95;;;1.85;;
63959;SDS011;50136;51.374;0.096;2023-03-01T10:21:52;5.85;;;1.95;;
63959;SDS011;50136;51.374;0.096;2023-03-01T10:32:02;3.60;;;1.80;;
63959;SDS011;50136;51.374;0.096;2023-03-01T10:42:18;5.78;;;1.88;;
63959;SDS011;50136;51.374;0.096;2023-03-01T10:52:27;3.70;;;1.55;;
63959;SDS011;50136;51.374;0.096;2023-03-01T11:02:32;2.60;;;1.23;;
63959;SDS011;50136;51.374;0.096;2023-03-01T11:12:35;5.82;;;1.30;;
63959;SDS011;50136;51.374;0.096;2023-03-01T11:22:37;9.52;;;1.80;;
63959;SDS011;50136;51.374;0.096;2023-03-01T11:32:50;9.38;;;1.50;;
63959;SDS011;50136;51.374;0.096;2023-03-01T11:43:04;12.75;;;2.38;;
63959;SDS011;50136;51.374;0.096;2023-03-01T11:53:20;5.18;;;1.98;;
63959;SDS011;50136;51.374;0.096;2023-03-01T12:03:34;4.32;;;1.50;;
63959;SDS011;50136;51.374;0.096;2023-03-01T12:14:02;10.85;;;2.13;;
63959;SDS011;50136;51.374;0.096;2023-03-01T12:45:45;9.53;;;2.60;;
63959;SDS011;50136;51.374;0.096;2023-03-01T13:06:07;5.53;;;1.92;;
63959;SDS011;50136;51.374;0.096;2023-03-01T13:16:28;17.88;;;7.57;;
63959;SDS011;50136;51.374;0.096;2023-03-01T13:37:44;5.32;;;2.40;;
63959;SDS011;50136;51.374;0.096;2023-03-01T13:47:47;7.38;;;1.75;;
63959;SDS011;50136;51.374;0.096;2023-03-01T13:57:59;5.03;;;2.17;;
63959;SDS011;50136;51.374;0.096;2023-03-01T14:08:03;4.38;;;1.90;;
63959;SDS011;50136;51.374;0.096;2023-03-01T14:18:07;4.72;;;2.33;;
63959;SDS011;50136;51.374;0.096;2023-03-01T14:28:16;9.25;;;2.92;;
63959;SDS011;50136;51.374;0.096;2023-03-01T14:38:21;8.40;;;3.45;;
63959;SDS011;50136;51.374;0.096;2023-03-01T14:48:24;14.00;;;5.68;;
63959;SDS011;50136;51.374;0.096;2023-03-01T14:58:31;9.95;;;3.80;;
63959;SDS011;50136;51.374;0.096;2023-03-01T15:08:34;8.02;;;2.15;;
63959;SDS011;50136;51.374;0.096;2023-03-01T15:18:42;11.82;;;4.25;;
63959;SDS011;50136;51.374;0.096;2023-03-01T15:28:49;5.03;;;2.10;;
63959;SDS011;50136;51.374;0.096;2023-03-01T15:38:55;6.30;;;2.67;;
63959;SDS011;50136;51.374;0.096;2023-03-01T15:48:58;5.32;;;2.20;;
63959;SDS011;50136;51.374;0.096;2023-03-01T15:59:05;8.48;;;2.10;;
63959;SDS011;50136;51.374;0.096;2023-03-01T16:09:10;9.52;;;2.58;;
63959;SDS011;50136;51.374;0.096;2023-03-01T16:19:14;6.38;;;4.10;;
63959;SDS011;50136;51.374;0.096;2023-03-01T16:29:16;9.35;;;3.55;;
63959;SDS011;50136;51.374;0.096;2023-03-01T16:39:21;12.68;;;4.32;;
63959;SDS011;50136;51.374;0.096;2023-03-01T16:49:24;4.40;;;2.55;;
63959;SDS011;50136;51.374;0.096;2023-03-01T16:59:28;5.65;;;2.38;;
63959;SDS011;50136;51.374;0.096;2023-03-01T17:09:30;7.65;;;2.13;;
63959;SDS011;50136;51.374;0.096;2023-03-01T17:19:37;3.53;;;2.30;;
63959;SDS011;50136;51.374;0.096;2023-03-01T17:29:39;8.43;;;3.13;;
63959;SDS011;50136;51.374;0.096;2023-03-01T17:39:42;6.35;;;3.67;;
63959;SDS011;50136;51.374;0.096;2023-03-01T17:49:44;9.13;;;3.83;;
63959;SDS011;50136;51.374;0.096;2023-03-01T17:59:48;6.90;;;2.42;;
63959;SDS011;50136;51.374;0.096;2023-03-01T18:09:50;8.48;;;2.53;;
63959;SDS011;50136;51.374;0.096;2023-03-01T18:19:53;4.45;;;1.48;;
63959;SDS011;50136;51.374;0.096;2023-03-01T18:30:03;5.88;;;1.88;;
63959;SDS011;50136;51.374;0.096;2023-03-01T18:40:09;4.50;;;2.33;;
63959;SDS011;50136;51.374;0.096;2023-03-01T18:50:12;9.02;;;3.05;;
63959;SDS011;50136;51.374;0.096;2023-03-01T19:00:16;11.35;;;3.08;;
63959;SDS011;50136;51.374;0.096;2023-03-01T19:10:19;13.77;;;3.83;;
63959;SDS011;50136;51.374;0.096;2023-03-01T19:20:24;3.03;;;1.95;;
63959;SDS011;50136;51.374;0.096;2023-03-01T19:52:39;12.80;;;4.75;;
63959;SDS011;50136;51.374;0.096;2023-03-01T20:02:41;11.95;;;3.53;;
63959;SDS011;50136;51.374;0.096;2023-03-01T20:12:44;6.35;;;2.15;;
63959;SDS011;50136;51.374;0.096;2023-03-01T20:22:46;16.48;;;3.20;;
63959;SDS011;50136;51.374;0.096;2023-03-01T20:32:50;8.70;;;2.75;;
63959;SDS011;50136;51.374;0.096;2023-03-01T20:42:52;13.82;;;4.50;;
63959;SDS011;50136;51.374;0.096;2023-03-01T20:52:55;10.95;;;5.15;;
63959;SDS011;50136;51.374;0.096;2023-03-01T21:02:57;8.10;;;4.20;;
63959;SDS011;50136;51.374;0.096;2023-03-01T21:13:01;5.35;;;2.97;;
63959;SDS011;50136;51.374;0.096;2023-03-01T21:23:05;5.85;;;2.88;;
63959;SDS011;50136;51.374;0.096;2023-03-01T21:33:08;9.15;;;3.35;;
63959;SDS011;50136;51.374;0.096;2023-03-01T21:53:31;7.10;;;3.70;;
63959;SDS011;50136;51.374;0.096;2023-03-01T22:03:34;3.92;;;2.42;;
63959;SDS011;50136;51.374;0.096;2023-03-01T22:13:39;3.25;;;2.10;;
63959;SDS011;50136;51.374;0.096;2023-03-01T22:23:41;4.57;;;3.35;;
63959;SDS011;50136;51.374;0.096;2023-03-01T22:33:45;7.13;;;2.92;;
63959;SDS011;50136;51.374;0.096;2023-03-01T22:43:47;9.13;;;3.30;;
63959;SDS011;50136;51.374;0.096;2023-03-01T22:53:50;11.18;;;2.42;;
63959;SDS011;50136;51.374;0.096;2023-03-01T23:03:52;5.18;;;3.00;;
63959;SDS011;50136;51.374;0.096;2023-03-01T23:13:56;10.13;;;2.47;;
63959;SDS011;50136;51.374;0.096;2023-03-01T23:23:59;7.97;;;2.80;;
63959;SDS011;50136;51.374;0.096;2023-03-01T23:34:03;8.45;;;3.17;;
63959;SDS011;50136;51.374;0.096;2023-03-01T23:44:05;6.85;;;3.08;;
63959;SDS011;50136;51.374;0.096;2023-03-01T23:54:09;10.20;;;3.25;;
